SBPS

Details ICAO SBPS (BPS)
Name Porto Seguro
Region Brazil
Timezone America/Bahia (UTC-3.0)
Plans Departing 70
Arriving 82
Stats Elevation 168 ft / 51 m (AMSL)
Location -16.438625° -39.080917°
Runways 1
Magnetic Variation 23.888° W
Sunrise 2018-05-22 08:55:53 UTC / 2018-05-22 05:55:53 Local
Sunset 2018-05-22 20:12:58 UTC / 2018-05-22 17:12:58 Local
Advertisement - Login to hide

Runways

ID Width Length Bearing (true) Bearing (mag) Surface Threshold Offset Overrun Length
10 148 ft / 45 m 6,532 ft / 1,991 m 74.06° 97.95° Asphalt 0 ft / 0 m 195 ft / 59 m
28 148 ft / 45 m 6,532 ft / 1,991 m 254.06° 277.95° Asphalt 0 ft / 0 m 0 ft / 0 m

Map

Weather


0- 5 10 15 20 25 30 35+ Temperature / ° C

Clouds and Precipitation
Forecast for 2018-05-22 00:00 UTC. Updated 3 hours ago

Ground ~20,000 ft ~40,000 ft Winds

METAR

SBPS 220200Z 25004KT 9999 SCT013 SCT023 BKN030 23/22 Q1017

TAF

TAF SBPS 212200Z 2200/2224 32005KT 9000 SCT015 SCT020 TN23/2207Z TX29/2216Z PROB40 TEMPO 2202/2208 6000 SHRA SCT012 SCT020 BECMG 2211/2212 16008KT RMK PCN

Frequencies

Tower 118.20 MHz TWR
Warning: Do not use this data for real-world aviation or navigation. No guarantee of current accuracy is given.